sensor_id;sensor_type;location;lat;lon;timestamp;P1;durP1;ratioP1;P2;durP2;ratioP2
73747;SDS011;62056;52.130;5.428;2023-07-31T00:01:36;5.82;;;3.10;;
73747;SDS011;62056;52.130;5.428;2023-07-31T00:04:03;3.47;;;2.33;;
73747;SDS011;62056;52.130;5.428;2023-07-31T00:06:30;2.30;;;2.05;;
73747;SDS011;62056;52.130;5.428;2023-07-31T00:08:56;3.95;;;2.38;;
73747;SDS011;62056;52.130;5.428;2023-07-31T00:11:23;6.57;;;1.90;;
73747;SDS011;62056;52.130;5.428;2023-07-31T00:13:50;2.33;;;2.13;;
73747;SDS011;62056;52.130;5.428;2023-07-31T00:16:16;2.78;;;1.67;;
73747;SDS011;62056;52.130;5.428;2023-07-31T00:18:43;3.28;;;1.30;;
73747;SDS011;62056;52.130;5.428;2023-07-31T00:21:10;2.97;;;1.85;;
73747;SDS011;62056;52.130;5.428;2023-07-31T00:23:36;2.43;;;0.60;;
73747;SDS011;62056;52.130;5.428;2023-07-31T00:26:03;1.27;;;0.93;;
73747;SDS011;62056;52.130;5.428;2023-07-31T00:28:30;1.90;;;1.63;;
73747;SDS011;62056;52.130;5.428;2023-07-31T00:30:57;2.25;;;1.00;;
73747;SDS011;62056;52.130;5.428;2023-07-31T00:33:23;2.22;;;1.50;;
73747;SDS011;62056;52.130;5.428;2023-07-31T00:35:50;3.53;;;1.90;;
73747;SDS011;62056;52.130;5.428;2023-07-31T00:38:16;4.32;;;2.80;;
73747;SDS011;62056;52.130;5.428;2023-07-31T00:40:43;2.17;;;1.98;;
73747;SDS011;62056;52.130;5.428;2023-07-31T00:43:10;7.07;;;4.35;;
73747;SDS011;62056;52.130;5.428;2023-07-31T00:45:37;4.47;;;2.92;;
73747;SDS011;62056;52.130;5.428;2023-07-31T00:48:04;6.23;;;4.00;;
73747;SDS011;62056;52.130;5.428;2023-07-31T00:50:32;12.10;;;4.53;;
73747;SDS011;62056;52.130;5.428;2023-07-31T00:52:59;8.38;;;4.20;;
73747;SDS011;62056;52.130;5.428;2023-07-31T00:55:26;13.80;;;4.65;;
73747;SDS011;62056;52.130;5.428;2023-07-31T00:57:53;23.42;;;7.60;;
73747;SDS011;62056;52.130;5.428;2023-07-31T01:00:22;18.93;;;6.13;;
73747;SDS011;62056;52.130;5.428;2023-07-31T01:02:49;15.25;;;4.88;;
73747;SDS011;62056;52.130;5.428;2023-07-31T01:05:20;16.98;;;4.97;;
73747;SDS011;62056;52.130;5.428;2023-07-31T01:08:04;16.38;;;5.78;;
73747;SDS011;62056;52.130;5.428;2023-07-31T01:10:39;16.33;;;6.63;;
73747;SDS011;62056;52.130;5.428;2023-07-31T01:13:12;12.77;;;4.07;;
73747;SDS011;62056;52.130;5.428;2023-07-31T01:15:39;17.98;;;5.13;;
73747;SDS011;62056;52.130;5.428;2023-07-31T01:18:05;14.55;;;3.95;;
73747;SDS011;62056;52.130;5.428;2023-07-31T01:20:32;15.82;;;3.90;;
73747;SDS011;62056;52.130;5.428;2023-07-31T01:28:55;6.55;;;2.75;;
73747;SDS011;62056;52.130;5.428;2023-07-31T01:31:27;10.18;;;2.60;;
73747;SDS011;62056;52.130;5.428;2023-07-31T01:33:57;4.35;;;1.83;;
73747;SDS011;62056;52.130;5.428;2023-07-31T01:36:27;6.20;;;1.80;;
73747;SDS011;62056;52.130;5.428;2023-07-31T01:38:59;4.60;;;1.90;;
73747;SDS011;62056;52.130;5.428;2023-07-31T01:41:27;3.88;;;2.10;;
73747;SDS011;62056;52.130;5.428;2023-07-31T01:43:55;7.88;;;3.30;;
73747;SDS011;62056;52.130;5.428;2023-07-31T01:46:22;5.20;;;2.45;;
73747;SDS011;62056;52.130;5.428;2023-07-31T01:48:48;15.52;;;3.20;;
73747;SDS011;62056;52.130;5.428;2023-07-31T01:51:15;8.50;;;3.33;;
73747;SDS011;62056;52.130;5.428;2023-07-31T01:53:41;11.68;;;3.22;;
73747;SDS011;62056;52.130;5.428;2023-07-31T01:56:08;10.38;;;3.75;;
73747;SDS011;62056;52.130;5.428;2023-07-31T01:58:35;16.55;;;4.00;;
73747;SDS011;62056;52.130;5.428;2023-07-31T02:01:01;10.75;;;3.17;;
73747;SDS011;62056;52.130;5.428;2023-07-31T02:03:28;11.33;;;4.90;;
73747;SDS011;62056;52.130;5.428;2023-07-31T02:05:55;16.70;;;6.68;;
73747;SDS011;62056;52.130;5.428;2023-07-31T02:08:23;14.52;;;3.90;;
73747;SDS011;62056;52.130;5.428;2023-07-31T02:10:49;9.88;;;3.30;;
73747;SDS011;62056;52.130;5.428;2023-07-31T02:13:16;5.40;;;3.17;;
73747;SDS011;62056;52.130;5.428;2023-07-31T02:15:43;11.63;;;5.40;;
73747;SDS011;62056;52.130;5.428;2023-07-31T02:18:09;12.00;;;3.83;;
73747;SDS011;62056;52.130;5.428;2023-07-31T02:20:36;9.52;;;3.80;;
73747;SDS011;62056;52.130;5.428;2023-07-31T02:23:03;10.82;;;4.50;;
73747;SDS011;62056;52.130;5.428;2023-07-31T02:25:29;10.30;;;3.85;;
73747;SDS011;62056;52.130;5.428;2023-07-31T02:27:56;8.13;;;3.40;;
73747;SDS011;62056;52.130;5.428;2023-07-31T02:30:23;10.55;;;3.38;;
73747;SDS011;62056;52.130;5.428;2023-07-31T02:32:50;9.48;;;4.20;;
73747;SDS011;62056;52.130;5.428;2023-07-31T02:35:17;10.77;;;3.55;;
73747;SDS011;62056;52.130;5.428;2023-07-31T02:37:45;11.68;;;4.68;;
73747;SDS011;62056;52.130;5.428;2023-07-31T02:40:12;15.60;;;3.70;;
73747;SDS011;62056;52.130;5.428;2023-07-31T02:42:39;15.15;;;3.95;;
73747;SDS011;62056;52.130;5.428;2023-07-31T02:45:06;8.82;;;3.30;;
73747;SDS011;62056;52.130;5.428;2023-07-31T02:47:33;11.88;;;4.38;;
73747;SDS011;62056;52.130;5.428;2023-07-31T02:50:01;11.60;;;6.15;;
73747;SDS011;62056;52.130;5.428;2023-07-31T02:52:29;12.67;;;3.90;;
73747;SDS011;62056;52.130;5.428;2023-07-31T02:54:56;16.05;;;5.47;;
73747;SDS011;62056;52.130;5.428;2023-07-31T02:57:22;14.13;;;4.43;;
73747;SDS011;62056;52.130;5.428;2023-07-31T02:59:49;11.20;;;7.40;;
73747;SDS011;62056;52.130;5.428;2023-07-31T03:02:16;9.85;;;4.53;;
73747;SDS011;62056;52.130;5.428;2023-07-31T03:04:43;12.47;;;4.93;;
73747;SDS011;62056;52.130;5.428;2023-07-31T03:07:10;20.05;;;11.27;;
73747;SDS011;62056;52.130;5.428;2023-07-31T03:09:36;13.88;;;6.20;;
73747;SDS011;62056;52.130;5.428;2023-07-31T03:12:03;27.90;;;16.35;;
73747;SDS011;62056;52.130;5.428;2023-07-31T03:14:30;12.82;;;6.60;;
73747;SDS011;62056;52.130;5.428;2023-07-31T03:16:57;11.63;;;6.10;;
73747;SDS011;62056;52.130;5.428;2023-07-31T03:19:23;8.88;;;5.50;;
73747;SDS011;62056;52.130;5.428;2023-07-31T03:21:50;15.30;;;4.60;;
73747;SDS011;62056;52.130;5.428;2023-07-31T03:24:17;16.30;;;4.93;;
73747;SDS011;62056;52.130;5.428;2023-07-31T03:26:44;9.15;;;4.55;;
73747;SDS011;62056;52.130;5.428;2023-07-31T03:29:10;22.70;;;6.73;;
73747;SDS011;62056;52.130;5.428;2023-07-31T03:31:37;18.17;;;5.82;;
73747;SDS011;62056;52.130;5.428;2023-07-31T03:34:04;18.05;;;5.22;;
73747;SDS011;62056;52.130;5.428;2023-07-31T03:36:31;18.10;;;6.70;;
73747;SDS011;62056;52.130;5.428;2023-07-31T03:38:58;12.32;;;4.40;;
73747;SDS011;62056;52.130;5.428;2023-07-31T03:41:25;10.73;;;4.47;;
73747;SDS011;62056;52.130;5.428;2023-07-31T03:43:51;8.50;;;3.60;;
73747;SDS011;62056;52.130;5.428;2023-07-31T03:46:18;15.63;;;5.35;;
73747;SDS011;62056;52.130;5.428;2023-07-31T03:48:45;13.65;;;5.18;;
73747;SDS011;62056;52.130;5.428;2023-07-31T03:51:12;17.45;;;4.10;;
73747;SDS011;62056;52.130;5.428;2023-07-31T03:53:39;13.33;;;7.40;;
73747;SDS011;62056;52.130;5.428;2023-07-31T03:56:05;14.43;;;5.63;;
73747;SDS011;62056;52.130;5.428;2023-07-31T03:58:32;15.52;;;5.60;;
73747;SDS011;62056;52.130;5.428;2023-07-31T04:00:59;14.40;;;4.55;;
73747;SDS011;62056;52.130;5.428;2023-07-31T04:03:25;10.10;;;4.82;;
73747;SDS011;62056;52.130;5.428;2023-07-31T04:05:53;16.47;;;6.57;;
73747;SDS011;62056;52.130;5.428;2023-07-31T04:08:23;20.05;;;6.82;;
73747;SDS011;62056;52.130;5.428;2023-07-31T04:10:50;10.75;;;5.63;;
73747;SDS011;62056;52.130;5.428;2023-07-31T04:13:17;19.58;;;6.47;;
73747;SDS011;62056;52.130;5.428;2023-07-31T04:15:47;11.55;;;5.70;;
73747;SDS011;62056;52.130;5.428;2023-07-31T04:18:16;14.37;;;5.53;;
73747;SDS011;62056;52.130;5.428;2023-07-31T04:20:45;15.60;;;5.35;;
73747;SDS011;62056;52.130;5.428;2023-07-31T04:23:12;12.75;;;4.80;;
73747;SDS011;62056;52.130;5.428;2023-07-31T04:25:39;12.48;;;4.88;;
73747;SDS011;62056;52.130;5.428;2023-07-31T04:28:05;12.40;;;5.05;;
73747;SDS011;62056;52.130;5.428;2023-07-31T04:30:32;19.23;;;5.13;;
73747;SDS011;62056;52.130;5.428;2023-07-31T04:32:59;18.98;;;5.15;;
73747;SDS011;62056;52.130;5.428;2023-07-31T04:35:27;13.30;;;5.35;;
73747;SDS011;62056;52.130;5.428;2023-07-31T04:37:53;14.70;;;4.30;;
73747;SDS011;62056;52.130;5.428;2023-07-31T04:40:20;12.95;;;4.88;;
73747;SDS011;62056;52.130;5.428;2023-07-31T04:42:48;7.57;;;3.27;;
73747;SDS011;62056;52.130;5.428;2023-07-31T04:45:14;9.30;;;3.88;;
73747;SDS011;62056;52.130;5.428;2023-07-31T04:47:41;13.15;;;4.82;;
73747;SDS011;62056;52.130;5.428;2023-07-31T04:50:08;10.55;;;4.10;;
73747;SDS011;62056;52.130;5.428;2023-07-31T04:52:35;15.60;;;4.10;;
73747;SDS011;62056;52.130;5.428;2023-07-31T04:55:02;11.57;;;4.67;;
73747;SDS011;62056;52.130;5.428;2023-07-31T04:57:30;13.50;;;3.97;;
73747;SDS011;62056;52.130;5.428;2023-07-31T04:59:56;8.70;;;4.43;;
73747;SDS011;62056;52.130;5.428;2023-07-31T05:02:23;8.93;;;3.42;;
73747;SDS011;62056;52.130;5.428;2023-07-31T05:04:51;10.30;;;4.25;;
73747;SDS011;62056;52.130;5.428;2023-07-31T05:07:17;10.13;;;3.70;;
73747;SDS011;62056;52.130;5.428;2023-07-31T05:09:44;12.10;;;4.82;;
73747;SDS011;62056;52.130;5.428;2023-07-31T05:12:11;10.57;;;4.68;;
73747;SDS011;62056;52.130;5.428;2023-07-31T05:14:38;11.55;;;4.32;;
73747;SDS011;62056;52.130;5.428;2023-07-31T05:17:04;11.32;;;4.72;;
73747;SDS011;62056;52.130;5.428;2023-07-31T05:19:33;16.73;;;5.23;;
73747;SDS011;62056;52.130;5.428;2023-07-31T05:22:00;12.10;;;5.20;;
73747;SDS011;62056;52.130;5.428;2023-07-31T05:24:26;9.65;;;4.97;;
73747;SDS011;62056;52.130;5.428;2023-07-31T05:26:53;7.97;;;4.43;;
73747;SDS011;62056;52.130;5.428;2023-07-31T05:29:20;9.32;;;4.75;;
73747;SDS011;62056;52.130;5.428;2023-07-31T05:31:47;14.37;;;7.40;;
73747;SDS011;62056;52.130;5.428;2023-07-31T05:34:14;11.38;;;4.13;;
73747;SDS011;62056;52.130;5.428;2023-07-31T05:36:40;10.80;;;3.72;;
73747;SDS011;62056;52.130;5.428;2023-07-31T05:39:07;6.43;;;3.35;;
73747;SDS011;62056;52.130;5.428;2023-07-31T05:41:35;5.53;;;3.47;;
73747;SDS011;62056;52.130;5.428;2023-07-31T05:44:02;5.87;;;2.73;;
73747;SDS011;62056;52.130;5.428;2023-07-31T05:46:29;5.07;;;2.80;;
73747;SDS011;62056;52.130;5.428;2023-07-31T05:48:57;6.22;;;2.35;;
73747;SDS011;62056;52.130;5.428;2023-07-31T05:51:27;6.97;;;2.83;;
73747;SDS011;62056;52.130;5.428;2023-07-31T05:53:54;8.07;;;2.30;;
73747;SDS011;62056;52.130;5.428;2023-07-31T05:56:21;5.63;;;2.00;;
73747;SDS011;62056;52.130;5.428;2023-07-31T05:58:47;11.05;;;2.88;;
73747;SDS011;62056;52.130;5.428;2023-07-31T06:01:15;3.45;;;2.35;;
73747;SDS011;62056;52.130;5.428;2023-07-31T06:03:43;5.22;;;2.63;;
73747;SDS011;62056;52.130;5.428;2023-07-31T06:06:10;4.50;;;2.55;;
73747;SDS011;62056;52.130;5.428;2023-07-31T06:08:37;3.67;;;2.23;;
73747;SDS011;62056;52.130;5.428;2023-07-31T06:11:04;5.30;;;3.15;;
73747;SDS011;62056;52.130;5.428;2023-07-31T06:13:31;4.22;;;2.35;;
73747;SDS011;62056;52.130;5.428;2023-07-31T06:15:58;6.65;;;2.78;;
73747;SDS011;62056;52.130;5.428;2023-07-31T06:18:26;6.00;;;2.03;;
73747;SDS011;62056;52.130;5.428;2023-07-31T06:20:53;7.13;;;3.20;;
73747;SDS011;62056;52.130;5.428;2023-07-31T06:23:20;7.10;;;2.10;;
73747;SDS011;62056;52.130;5.428;2023-07-31T06:25:47;6.43;;;3.28;;
73747;SDS011;62056;52.130;5.428;2023-07-31T06:28:14;4.05;;;2.08;;
73747;SDS011;62056;52.130;5.428;2023-07-31T06:30:40;6.53;;;2.20;;
73747;SDS011;62056;52.130;5.428;2023-07-31T06:33:07;6.13;;;2.60;;
73747;SDS011;62056;52.130;5.428;2023-07-31T06:35:34;5.60;;;2.63;;
73747;SDS011;62056;52.130;5.428;2023-07-31T06:38:01;4.65;;;2.47;;
73747;SDS011;62056;52.130;5.428;2023-07-31T06:40:28;2.88;;;2.15;;
73747;SDS011;62056;52.130;5.428;2023-07-31T06:42:56;5.18;;;1.88;;
73747;SDS011;62056;52.130;5.428;2023-07-31T06:45:23;5.67;;;2.33;;
73747;SDS011;62056;52.130;5.428;2023-07-31T06:47:50;2.97;;;2.22;;
73747;SDS011;62056;52.130;5.428;2023-07-31T06:50:17;3.33;;;1.90;;
73747;SDS011;62056;52.130;5.428;2023-07-31T06:52:44;2.72;;;1.55;;
73747;SDS011;62056;52.130;5.428;2023-07-31T06:55:17;4.30;;;1.67;;
73747;SDS011;62056;52.130;5.428;2023-07-31T06:57:49;4.37;;;2.03;;
73747;SDS011;62056;52.130;5.428;2023-07-31T07:00:17;4.85;;;2.38;;
73747;SDS011;62056;52.130;5.428;2023-07-31T07:02:45;4.07;;;1.75;;
73747;SDS011;62056;52.130;5.428;2023-07-31T07:05:14;3.88;;;2.17;;
73747;SDS011;62056;52.130;5.428;2023-07-31T07:07:42;3.33;;;2.67;;
73747;SDS011;62056;52.130;5.428;2023-07-31T07:10:11;2.23;;;1.80;;
73747;SDS011;62056;52.130;5.428;2023-07-31T07:12:37;6.05;;;2.42;;
73747;SDS011;62056;52.130;5.428;2023-07-31T07:15:04;3.25;;;2.88;;
73747;SDS011;62056;52.130;5.428;2023-07-31T07:17:33;3.28;;;1.95;;
73747;SDS011;62056;52.130;5.428;2023-07-31T07:20:00;5.00;;;1.70;;
73747;SDS011;62056;52.130;5.428;2023-07-31T07:22:27;2.60;;;1.77;;
73747;SDS011;62056;52.130;5.428;2023-07-31T07:24:54;3.05;;;1.73;;
73747;SDS011;62056;52.130;5.428;2023-07-31T07:27:21;2.63;;;1.40;;
73747;SDS011;62056;52.130;5.428;2023-07-31T07:29:50;1.70;;;1.30;;
73747;SDS011;62056;52.130;5.428;2023-07-31T07:32:19;2.10;;;1.20;;
73747;SDS011;62056;52.130;5.428;2023-07-31T07:34:47;3.13;;;1.53;;
73747;SDS011;62056;52.130;5.428;2023-07-31T07:37:15;5.13;;;1.50;;
73747;SDS011;62056;52.130;5.428;2023-07-31T07:39:42;3.08;;;1.80;;
73747;SDS011;62056;52.130;5.428;2023-07-31T07:42:09;3.22;;;2.03;;
73747;SDS011;62056;52.130;5.428;2023-07-31T07:44:36;3.45;;;1.60;;
73747;SDS011;62056;52.130;5.428;2023-07-31T07:47:03;2.23;;;2.03;;
73747;SDS011;62056;52.130;5.428;2023-07-31T07:49:33;3.17;;;2.35;;
73747;SDS011;62056;52.130;5.428;2023-07-31T07:52:01;2.28;;;1.92;;
73747;SDS011;62056;52.130;5.428;2023-07-31T07:54:28;2.17;;;1.80;;
73747;SDS011;62056;52.130;5.428;2023-07-31T07:56:55;2.92;;;1.42;;
73747;SDS011;62056;52.130;5.428;2023-07-31T07:59:22;1.93;;;1.40;;
73747;SDS011;62056;52.130;5.428;2023-07-31T08:01:49;3.85;;;1.25;;
73747;SDS011;62056;52.130;5.428;2023-07-31T08:04:16;2.05;;;1.20;;
73747;SDS011;62056;52.130;5.428;2023-07-31T08:06:43;1.90;;;1.00;;
73747;SDS011;62056;52.130;5.428;2023-07-31T08:09:09;2.92;;;0.90;;
73747;SDS011;62056;52.130;5.428;2023-07-31T08:11:36;2.00;;;0.90;;
73747;SDS011;62056;52.130;5.428;2023-07-31T08:14:03;3.90;;;1.52;;
73747;SDS011;62056;52.130;5.428;2023-07-31T08:16:29;3.65;;;1.00;;
73747;SDS011;62056;52.130;5.428;2023-07-31T08:18:56;1.08;;;0.93;;
73747;SDS011;62056;52.130;5.428;2023-07-31T08:21:23;2.25;;;0.95;;
73747;SDS011;62056;52.130;5.428;2023-07-31T08:23:50;1.90;;;0.93;;
73747;SDS011;62056;52.130;5.428;2023-07-31T08:26:19;1.95;;;0.60;;
73747;SDS011;62056;52.130;5.428;2023-07-31T08:28:47;1.63;;;0.70;;
73747;SDS011;62056;52.130;5.428;2023-07-31T08:31:14;1.77;;;1.00;;
73747;SDS011;62056;52.130;5.428;2023-07-31T08:33:40;2.65;;;0.60;;
73747;SDS011;62056;52.130;5.428;2023-07-31T08:36:07;1.00;;;0.60;;
73747;SDS011;62056;52.130;5.428;2023-07-31T08:38:36;3.70;;;0.70;;
73747;SDS011;62056;52.130;5.428;2023-07-31T08:41:03;1.45;;;0.60;;
73747;SDS011;62056;52.130;5.428;2023-07-31T08:43:31;1.65;;;0.80;;
73747;SDS011;62056;52.130;5.428;2023-07-31T08:45:59;2.05;;;0.80;;
73747;SDS011;62056;52.130;5.428;2023-07-31T08:48:27;1.50;;;0.80;;
73747;SDS011;62056;52.130;5.428;2023-07-31T08:50:55;1.33;;;0.55;;
73747;SDS011;62056;52.130;5.428;2023-07-31T08:53:24;1.23;;;0.73;;
73747;SDS011;62056;52.130;5.428;2023-07-31T08:55:52;1.50;;;0.80;;
73747;SDS011;62056;52.130;5.428;2023-07-31T08:58:22;1.15;;;0.77;;
73747;SDS011;62056;52.130;5.428;2023-07-31T09:00:50;1.33;;;0.70;;
73747;SDS011;62056;52.130;5.428;2023-07-31T09:03:19;1.17;;;0.68;;
73747;SDS011;62056;52.130;5.428;2023-07-31T09:05:49;1.30;;;0.65;;
73747;SDS011;62056;52.130;5.428;2023-07-31T09:08:20;1.20;;;0.52;;
73747;SDS011;62056;52.130;5.428;2023-07-31T09:10:48;1.48;;;0.60;;
73747;SDS011;62056;52.130;5.428;2023-07-31T09:13:19;1.53;;;0.77;;
73747;SDS011;62056;52.130;5.428;2023-07-31T09:15:46;1.15;;;0.75;;
73747;SDS011;62056;52.130;5.428;2023-07-31T09:18:13;1.27;;;0.90;;
73747;SDS011;62056;52.130;5.428;2023-07-31T09:20:45;1.00;;;0.70;;
73747;SDS011;62056;52.130;5.428;2023-07-31T09:23:14;0.95;;;0.75;;
73747;SDS011;62056;52.130;5.428;2023-07-31T09:25:43;0.93;;;0.67;;
73747;SDS011;62056;52.130;5.428;2023-07-31T09:28:11;0.95;;;0.70;;
73747;SDS011;62056;52.130;5.428;2023-07-31T09:30:49;1.10;;;0.77;;
73747;SDS011;62056;52.130;5.428;2023-07-31T09:33:19;1.08;;;0.63;;
73747;SDS011;62056;52.130;5.428;2023-07-31T09:35:47;1.90;;;0.80;;
73747;SDS011;62056;52.130;5.428;2023-07-31T09:38:16;1.43;;;0.90;;
73747;SDS011;62056;52.130;5.428;2023-07-31T09:40:46;1.80;;;1.10;;
73747;SDS011;62056;52.130;5.428;2023-07-31T09:43:19;0.90;;;0.68;;
73747;SDS011;62056;52.130;5.428;2023-07-31T09:45:48;1.15;;;0.65;;
73747;SDS011;62056;52.130;5.428;2023-07-31T09:48:22;2.03;;;1.00;;
73747;SDS011;62056;52.130;5.428;2023-07-31T09:50:52;1.30;;;0.80;;
73747;SDS011;62056;52.130;5.428;2023-07-31T09:53:19;1.27;;;0.60;;
73747;SDS011;62056;52.130;5.428;2023-07-31T09:55:54;1.40;;;1.00;;
73747;SDS011;62056;52.130;5.428;2023-07-31T09:58:21;2.10;;;0.73;;
73747;SDS011;62056;52.130;5.428;2023-07-31T10:00:49;3.30;;;0.75;;
73747;SDS011;62056;52.130;5.428;2023-07-31T10:03:15;2.50;;;1.00;;
73747;SDS011;62056;52.130;5.428;2023-07-31T10:05:45;1.90;;;0.93;;
73747;SDS011;62056;52.130;5.428;2023-07-31T10:08:17;2.22;;;1.23;;
73747;SDS011;62056;52.130;5.428;2023-07-31T10:10:49;1.75;;;0.77;;
73747;SDS011;62056;52.130;5.428;2023-07-31T10:13:16;2.28;;;1.08;;
73747;SDS011;62056;52.130;5.428;2023-07-31T10:15:44;1.10;;;0.77;;
73747;SDS011;62056;52.130;5.428;2023-07-31T10:18:12;1.73;;;1.17;;
73747;SDS011;62056;52.130;5.428;2023-07-31T10:20:39;1.30;;;1.08;;
73747;SDS011;62056;52.130;5.428;2023-07-31T10:23:07;1.48;;;1.20;;
73747;SDS011;62056;52.130;5.428;2023-07-31T10:25:34;2.00;;;0.93;;
73747;SDS011;62056;52.130;5.428;2023-07-31T10:28:03;1.77;;;1.47;;
73747;SDS011;62056;52.130;5.428;2023-07-31T10:30:30;2.80;;;1.35;;
73747;SDS011;62056;52.130;5.428;2023-07-31T10:33:00;2.25;;;1.60;;
73747;SDS011;62056;52.130;5.428;2023-07-31T10:35:28;2.00;;;1.73;;
73747;SDS011;62056;52.130;5.428;2023-07-31T10:37:55;3.22;;;1.10;;
73747;SDS011;62056;52.130;5.428;2023-07-31T10:40:25;2.30;;;1.90;;
73747;SDS011;62056;52.130;5.428;2023-07-31T10:42:54;2.42;;;1.20;;
73747;SDS011;62056;52.130;5.428;2023-07-31T10:45:25;1.90;;;1.70;;
73747;SDS011;62056;52.130;5.428;2023-07-31T10:50:38;3.85;;;2.05;;
73747;SDS011;62056;52.130;5.428;2023-07-31T10:53:22;4.47;;;2.50;;
73747;SDS011;62056;52.130;5.428;2023-07-31T10:55:50;2.80;;;1.95;;
73747;SDS011;62056;52.130;5.428;2023-07-31T10:58:20;2.33;;;1.60;;
73747;SDS011;62056;52.130;5.428;2023-07-31T11:00:47;2.72;;;1.73;;
73747;SDS011;62056;52.130;5.428;2023-07-31T11:03:16;2.47;;;1.80;;
73747;SDS011;62056;52.130;5.428;2023-07-31T11:05:48;2.30;;;1.53;;
73747;SDS011;62056;52.130;5.428;2023-07-31T11:08:31;2.00;;;1.30;;
73747;SDS011;62056;52.130;5.428;2023-07-31T11:13:29;2.70;;;1.60;;
73747;SDS011;62056;52.130;5.428;2023-07-31T11:15:57;2.67;;;1.33;;
73747;SDS011;62056;52.130;5.428;2023-07-31T11:18:25;3.40;;;1.33;;
73747;SDS011;62056;52.130;5.428;2023-07-31T11:20:53;1.23;;;0.90;;
73747;SDS011;62056;52.130;5.428;2023-07-31T11:23:21;1.33;;;1.20;;
73747;SDS011;62056;52.130;5.428;2023-07-31T11:25:49;2.17;;;1.48;;
73747;SDS011;62056;52.130;5.428;2023-07-31T11:28:17;3.80;;;1.00;;
73747;SDS011;62056;52.130;5.428;2023-07-31T11:30:45;1.30;;;0.90;;
73747;SDS011;62056;52.130;5.428;2023-07-31T11:33:13;1.02;;;0.85;;
73747;SDS011;62056;52.130;5.428;2023-07-31T11:35:42;1.60;;;1.30;;
73747;SDS011;62056;52.130;5.428;2023-07-31T11:38:11;1.10;;;0.90;;
73747;SDS011;62056;52.130;5.428;2023-07-31T11:40:42;1.05;;;0.60;;
73747;SDS011;62056;52.130;5.428;2023-07-31T11:43:10;2.07;;;1.13;;
73747;SDS011;62056;52.130;5.428;2023-07-31T11:45:40;2.08;;;0.90;;
73747;SDS011;62056;52.130;5.428;2023-07-31T11:48:07;1.52;;;1.20;;
73747;SDS011;62056;52.130;5.428;2023-07-31T11:50:34;0.95;;;0.75;;
73747;SDS011;62056;52.130;5.428;2023-07-31T11:53:03;1.38;;;0.98;;
73747;SDS011;62056;52.130;5.428;2023-07-31T11:55:35;1.27;;;0.80;;
73747;SDS011;62056;52.130;5.428;2023-07-31T11:58:02;1.48;;;0.90;;
73747;SDS011;62056;52.130;5.428;2023-07-31T12:00:29;1.20;;;0.93;;
73747;SDS011;62056;52.130;5.428;2023-07-31T12:02:57;2.38;;;1.50;;
73747;SDS011;62056;52.130;5.428;2023-07-31T12:05:24;2.70;;;1.75;;
73747;SDS011;62056;52.130;5.428;2023-07-31T12:07:52;1.60;;;1.10;;
73747;SDS011;62056;52.130;5.428;2023-07-31T12:10:24;1.63;;;1.10;;
73747;SDS011;62056;52.130;5.428;2023-07-31T12:18:11;2.90;;;1.33;;
73747;SDS011;62056;52.130;5.428;2023-07-31T12:20:40;2.10;;;1.07;;
73747;SDS011;62056;52.130;5.428;2023-07-31T12:23:18;1.42;;;1.23;;
73747;SDS011;62056;52.130;5.428;2023-07-31T12:26:00;1.13;;;1.00;;
73747;SDS011;62056;52.130;5.428;2023-07-31T12:28:28;1.40;;;1.00;;
73747;SDS011;62056;52.130;5.428;2023-07-31T12:30:59;3.25;;;1.30;;
73747;SDS011;62056;52.130;5.428;2023-07-31T12:33:30;1.77;;;0.90;;
73747;SDS011;62056;52.130;5.428;2023-07-31T12:35:59;1.77;;;0.93;;
73747;SDS011;62056;52.130;5.428;2023-07-31T12:38:28;1.80;;;1.00;;
73747;SDS011;62056;52.130;5.428;2023-07-31T12:40:57;1.67;;;1.10;;
73747;SDS011;62056;52.130;5.428;2023-07-31T12:43:24;1.30;;;0.95;;
73747;SDS011;62056;52.130;5.428;2023-07-31T12:45:51;3.80;;;0.70;;
73747;SDS011;62056;52.130;5.428;2023-07-31T12:48:18;1.20;;;0.88;;
73747;SDS011;62056;52.130;5.428;2023-07-31T12:50:44;2.90;;;0.98;;
73747;SDS011;62056;52.130;5.428;2023-07-31T12:53:14;1.10;;;1.00;;
73747;SDS011;62056;52.130;5.428;2023-07-31T12:55:41;1.17;;;0.90;;
73747;SDS011;62056;52.130;5.428;2023-07-31T12:58:08;1.00;;;0.90;;
73747;SDS011;62056;52.130;5.428;2023-07-31T13:00:35;1.23;;;1.05;;
73747;SDS011;62056;52.130;5.428;2023-07-31T13:03:02;1.30;;;1.20;;
73747;SDS011;62056;52.130;5.428;2023-07-31T13:05:30;1.20;;;1.08;;
73747;SDS011;62056;52.130;5.428;2023-07-31T13:07:56;1.42;;;1.33;;
73747;SDS011;62056;52.130;5.428;2023-07-31T13:10:23;4.93;;;1.70;;
73747;SDS011;62056;52.130;5.428;2023-07-31T13:12:50;1.77;;;1.25;;
73747;SDS011;62056;52.130;5.428;2023-07-31T13:15:17;1.73;;;1.40;;
73747;SDS011;62056;52.130;5.428;2023-07-31T13:17:45;2.88;;;2.05;;
73747;SDS011;62056;52.130;5.428;2023-07-31T13:20:12;1.77;;;1.42;;
73747;SDS011;62056;52.130;5.428;2023-07-31T13:22:39;1.90;;;1.20;;
73747;SDS011;62056;52.130;5.428;2023-07-31T13:25:11;1.60;;;1.50;;
73747;SDS011;62056;52.130;5.428;2023-07-31T13:27:38;1.83;;;1.50;;
73747;SDS011;62056;52.130;5.428;2023-07-31T13:30:06;2.83;;;1.30;;
73747;SDS011;62056;52.130;5.428;2023-07-31T13:32:33;1.65;;;1.52;;
73747;SDS011;62056;52.130;5.428;2023-07-31T13:35:05;1.83;;;1.30;;
73747;SDS011;62056;52.130;5.428;2023-07-31T13:37:33;1.67;;;1.45;;
73747;SDS011;62056;52.130;5.428;2023-07-31T13:40:01;3.42;;;1.23;;
73747;SDS011;62056;52.130;5.428;2023-07-31T13:42:28;3.17;;;1.25;;
73747;SDS011;62056;52.130;5.428;2023-07-31T13:44:56;5.55;;;1.20;;
73747;SDS011;62056;52.130;5.428;2023-07-31T13:47:23;1.50;;;0.80;;
73747;SDS011;62056;52.130;5.428;2023-07-31T13:49:50;1.30;;;0.65;;
73747;SDS011;62056;52.130;5.428;2023-07-31T13:52:16;1.45;;;0.60;;
73747;SDS011;62056;52.130;5.428;2023-07-31T13:54:43;0.80;;;0.60;;
73747;SDS011;62056;52.130;5.428;2023-07-31T13:57:10;1.30;;;0.93;;
73747;SDS011;62056;52.130;5.428;2023-07-31T13:59:36;0.90;;;0.60;;
73747;SDS011;62056;52.130;5.428;2023-07-31T14:02:04;1.90;;;0.73;;
73747;SDS011;62056;52.130;5.428;2023-07-31T14:04:30;1.23;;;0.85;;
73747;SDS011;62056;52.130;5.428;2023-07-31T14:06:58;1.17;;;0.50;;
73747;SDS011;62056;52.130;5.428;2023-07-31T14:09:25;0.93;;;0.52;;
73747;SDS011;62056;52.130;5.428;2023-07-31T14:11:52;1.70;;;0.53;;
73747;SDS011;62056;52.130;5.428;2023-07-31T14:14:19;0.95;;;0.65;;
73747;SDS011;62056;52.130;5.428;2023-07-31T14:16:45;1.52;;;0.80;;
73747;SDS011;62056;52.130;5.428;2023-07-31T14:19:12;1.13;;;0.73;;
73747;SDS011;62056;52.130;5.428;2023-07-31T14:21:39;1.55;;;1.17;;
73747;SDS011;62056;52.130;5.428;2023-07-31T14:24:06;2.53;;;1.60;;
73747;SDS011;62056;52.130;5.428;2023-07-31T14:26:33;2.17;;;1.92;;
73747;SDS011;62056;52.130;5.428;2023-07-31T14:28:59;2.45;;;2.25;;
73747;SDS011;62056;52.130;5.428;2023-07-31T14:31:26;4.45;;;2.28;;
73747;SDS011;62056;52.130;5.428;2023-07-31T14:33:53;2.17;;;1.98;;
73747;SDS011;62056;52.130;5.428;2023-07-31T14:36:23;3.07;;;2.87;;
73747;SDS011;62056;52.130;5.428;2023-07-31T14:38:50;1.50;;;1.40;;
73747;SDS011;62056;52.130;5.428;2023-07-31T14:41:17;2.53;;;2.33;;
73747;SDS011;62056;52.130;5.428;2023-07-31T14:43:44;2.13;;;2.03;;
73747;SDS011;62056;52.130;5.428;2023-07-31T14:46:10;2.80;;;2.60;;
73747;SDS011;62056;52.130;5.428;2023-07-31T14:48:37;2.47;;;2.20;;
73747;SDS011;62056;52.130;5.428;2023-07-31T14:51:04;1.90;;;1.80;;
73747;SDS011;62056;52.130;5.428;2023-07-31T14:53:30;2.20;;;2.00;;
73747;SDS011;62056;52.130;5.428;2023-07-31T14:55:57;2.40;;;2.05;;
73747;SDS011;62056;52.130;5.428;2023-07-31T14:58:24;2.30;;;2.10;;
73747;SDS011;62056;52.130;5.428;2023-07-31T15:00:51;1.87;;;1.40;;
73747;SDS011;62056;52.130;5.428;2023-07-31T15:03:17;2.90;;;2.65;;